sensor_id;sensor_type;location;lat;lon;timestamp;P1;durP1;ratioP1;P2;durP2;ratioP2
2123;SDS011;1068;52.460;13.528;2024-03-08T00:00:28;30.38;;;18.45;;
2123;SDS011;1068;52.460;13.528;2024-03-08T00:02:59;25.48;;;17.20;;
2123;SDS011;1068;52.460;13.528;2024-03-08T00:05:27;30.27;;;18.50;;
2123;SDS011;1068;52.460;13.528;2024-03-08T00:07:54;27.63;;;19.08;;
2123;SDS011;1068;52.460;13.528;2024-03-08T00:10:21;28.08;;;19.08;;
2123;SDS011;1068;52.460;13.528;2024-03-08T00:12:48;27.33;;;18.13;;
2123;SDS011;1068;52.460;13.528;2024-03-08T00:15:16;28.20;;;20.25;;
2123;SDS011;1068;52.460;13.528;2024-03-08T00:17:44;28.95;;;19.00;;
2123;SDS011;1068;52.460;13.528;2024-03-08T00:20:13;24.63;;;19.00;;
2123;SDS011;1068;52.460;13.528;2024-03-08T00:22:40;29.35;;;19.92;;
2123;SDS011;1068;52.460;13.528;2024-03-08T00:25:07;26.33;;;18.65;;
2123;SDS011;1068;52.460;13.528;2024-03-08T00:27:34;21.73;;;17.88;;
2123;SDS011;1068;52.460;13.528;2024-03-08T00:30:01;28.92;;;19.08;;
2123;SDS011;1068;52.460;13.528;2024-03-08T00:32:29;28.65;;;18.50;;
2123;SDS011;1068;52.460;13.528;2024-03-08T00:34:56;23.95;;;17.42;;
2123;SDS011;1068;52.460;13.528;2024-03-08T00:37:25;25.00;;;17.83;;
2123;SDS011;1068;52.460;13.528;2024-03-08T00:39:52;22.90;;;16.77;;
2123;SDS011;1068;52.460;13.528;2024-03-08T00:42:19;22.52;;;16.67;;
2123;SDS011;1068;52.460;13.528;2024-03-08T00:44:46;23.55;;;16.48;;
2123;SDS011;1068;52.460;13.528;2024-03-08T00:47:15;28.58;;;16.77;;
2123;SDS011;1068;52.460;13.528;2024-03-08T00:49:42;24.33;;;16.40;;
2123;SDS011;1068;52.460;13.528;2024-03-08T00:52:09;29.70;;;16.95;;
2123;SDS011;1068;52.460;13.528;2024-03-08T00:54:38;27.42;;;16.88;;
2123;SDS011;1068;52.460;13.528;2024-03-08T00:57:05;25.58;;;16.90;;
2123;SDS011;1068;52.460;13.528;2024-03-08T00:59:32;23.10;;;17.23;;
2123;SDS011;1068;52.460;13.528;2024-03-08T01:01:59;26.45;;;17.42;;
2123;SDS011;1068;52.460;13.528;2024-03-08T01:04:26;25.65;;;16.67;;
2123;SDS011;1068;52.460;13.528;2024-03-08T01:06:54;27.17;;;18.23;;
2123;SDS011;1068;52.460;13.528;2024-03-08T01:09:21;29.15;;;19.52;;
2123;SDS011;1068;52.460;13.528;2024-03-08T01:11:49;37.60;;;20.52;;
2123;SDS011;1068;52.460;13.528;2024-03-08T01:14:19;33.05;;;20.48;;
2123;SDS011;1068;52.460;13.528;2024-03-08T01:16:47;29.42;;;20.20;;
2123;SDS011;1068;52.460;13.528;2024-03-08T01:19:14;26.88;;;19.17;;
2123;SDS011;1068;52.460;13.528;2024-03-08T01:21:41;27.05;;;18.98;;
2123;SDS011;1068;52.460;13.528;2024-03-08T01:24:08;29.70;;;19.85;;
2123;SDS011;1068;52.460;13.528;2024-03-08T01:26:35;27.27;;;19.05;;
2123;SDS011;1068;52.460;13.528;2024-03-08T01:29:03;29.05;;;19.77;;
2123;SDS011;1068;52.460;13.528;2024-03-08T01:31:31;27.13;;;18.60;;
2123;SDS011;1068;52.460;13.528;2024-03-08T01:33:58;23.63;;;18.67;;
2123;SDS011;1068;52.460;13.528;2024-03-08T01:36:25;25.20;;;16.73;;
2123;SDS011;1068;52.460;13.528;2024-03-08T01:38:52;27.15;;;18.67;;
2123;SDS011;1068;52.460;13.528;2024-03-08T01:41:19;25.60;;;18.38;;
2123;SDS011;1068;52.460;13.528;2024-03-08T01:43:46;30.83;;;18.90;;
2123;SDS011;1068;52.460;13.528;2024-03-08T01:46:15;25.15;;;18.30;;
2123;SDS011;1068;52.460;13.528;2024-03-08T01:48:44;27.42;;;17.95;;
2123;SDS011;1068;52.460;13.528;2024-03-08T01:51:11;27.67;;;18.63;;
2123;SDS011;1068;52.460;13.528;2024-03-08T01:53:39;30.42;;;19.17;;
2123;SDS011;1068;52.460;13.528;2024-03-08T01:56:07;25.95;;;18.60;;
2123;SDS011;1068;52.460;13.528;2024-03-08T01:58:34;26.17;;;17.90;;
2123;SDS011;1068;52.460;13.528;2024-03-08T02:01:02;24.58;;;17.80;;
2123;SDS011;1068;52.460;13.528;2024-03-08T02:03:30;26.05;;;18.25;;
2123;SDS011;1068;52.460;13.528;2024-03-08T02:05:57;25.15;;;18.13;;
2123;SDS011;1068;52.460;13.528;2024-03-08T02:08:24;26.17;;;17.75;;
2123;SDS011;1068;52.460;13.528;2024-03-08T02:10:52;28.05;;;18.00;;
2123;SDS011;1068;52.460;13.528;2024-03-08T02:13:19;27.20;;;17.67;;
2123;SDS011;1068;52.460;13.528;2024-03-08T02:15:49;31.50;;;17.70;;
2123;SDS011;1068;52.460;13.528;2024-03-08T02:18:16;26.63;;;17.65;;
2123;SDS011;1068;52.460;13.528;2024-03-08T02:20:44;22.45;;;16.70;;
2123;SDS011;1068;52.460;13.528;2024-03-08T02:23:12;24.58;;;15.88;;
2123;SDS011;1068;52.460;13.528;2024-03-08T02:25:39;24.40;;;15.70;;
2123;SDS011;1068;52.460;13.528;2024-03-08T02:28:07;25.13;;;16.15;;
2123;SDS011;1068;52.460;13.528;2024-03-08T02:30:34;23.83;;;16.42;;
2123;SDS011;1068;52.460;13.528;2024-03-08T02:33:01;23.77;;;15.38;;
2123;SDS011;1068;52.460;13.528;2024-03-08T02:35:28;27.80;;;17.40;;
2123;SDS011;1068;52.460;13.528;2024-03-08T02:37:57;26.67;;;15.65;;
2123;SDS011;1068;52.460;13.528;2024-03-08T02:40:24;22.40;;;14.77;;
2123;SDS011;1068;52.460;13.528;2024-03-08T02:42:51;25.27;;;16.05;;
2123;SDS011;1068;52.460;13.528;2024-03-08T02:45:18;31.42;;;16.20;;
2123;SDS011;1068;52.460;13.528;2024-03-08T02:47:45;21.42;;;15.07;;
2123;SDS011;1068;52.460;13.528;2024-03-08T02:50:14;27.65;;;16.40;;
2123;SDS011;1068;52.460;13.528;2024-03-08T02:52:41;25.70;;;16.42;;
2123;SDS011;1068;52.460;13.528;2024-03-08T02:55:10;23.58;;;16.30;;
2123;SDS011;1068;52.460;13.528;2024-03-08T02:57:40;21.48;;;15.00;;
2123;SDS011;1068;52.460;13.528;2024-03-08T03:00:08;27.48;;;17.67;;
2123;SDS011;1068;52.460;13.528;2024-03-08T03:02:35;27.40;;;16.55;;
2123;SDS011;1068;52.460;13.528;2024-03-08T03:05:02;20.00;;;15.55;;
2123;SDS011;1068;52.460;13.528;2024-03-08T03:07:31;25.10;;;15.75;;
2123;SDS011;1068;52.460;13.528;2024-03-08T03:09:58;21.13;;;14.85;;
2123;SDS011;1068;52.460;13.528;2024-03-08T03:12:26;25.40;;;15.00;;
2123;SDS011;1068;52.460;13.528;2024-03-08T03:14:53;23.77;;;15.27;;
2123;SDS011;1068;52.460;13.528;2024-03-08T03:17:21;22.92;;;15.52;;
2123;SDS011;1068;52.460;13.528;2024-03-08T03:19:48;30.13;;;16.92;;
2123;SDS011;1068;52.460;13.528;2024-03-08T03:22:16;24.08;;;15.60;;
2123;SDS011;1068;52.460;13.528;2024-03-08T03:24:43;26.33;;;17.10;;
2123;SDS011;1068;52.460;13.528;2024-03-08T03:27:11;24.92;;;15.88;;
2123;SDS011;1068;52.460;13.528;2024-03-08T03:29:39;22.33;;;15.60;;
2123;SDS011;1068;52.460;13.528;2024-03-08T03:32:07;24.95;;;15.75;;
2123;SDS011;1068;52.460;13.528;2024-03-08T03:34:34;23.25;;;15.38;;
2123;SDS011;1068;52.460;13.528;2024-03-08T03:37:01;22.98;;;16.10;;
2123;SDS011;1068;52.460;13.528;2024-03-08T03:39:28;22.85;;;15.15;;
2123;SDS011;1068;52.460;13.528;2024-03-08T03:41:57;24.05;;;15.35;;
2123;SDS011;1068;52.460;13.528;2024-03-08T03:44:24;26.45;;;16.23;;
2123;SDS011;1068;52.460;13.528;2024-03-08T03:46:52;23.70;;;15.52;;
2123;SDS011;1068;52.460;13.528;2024-03-08T03:49:19;26.30;;;14.10;;
2123;SDS011;1068;52.460;13.528;2024-03-08T03:51:46;23.98;;;15.20;;
2123;SDS011;1068;52.460;13.528;2024-03-08T03:54:13;24.10;;;16.75;;
2123;SDS011;1068;52.460;13.528;2024-03-08T03:56:40;20.75;;;14.98;;
2123;SDS011;1068;52.460;13.528;2024-03-08T03:59:07;26.00;;;17.58;;
2123;SDS011;1068;52.460;13.528;2024-03-08T04:01:34;24.02;;;16.52;;
2123;SDS011;1068;52.460;13.528;2024-03-08T04:04:02;28.38;;;16.65;;
2123;SDS011;1068;52.460;13.528;2024-03-08T04:06:30;25.98;;;15.38;;
2123;SDS011;1068;52.460;13.528;2024-03-08T04:08:57;25.45;;;16.17;;
2123;SDS011;1068;52.460;13.528;2024-03-08T04:11:24;26.83;;;15.43;;
2123;SDS011;1068;52.460;13.528;2024-03-08T04:13:50;22.83;;;15.30;;
2123;SDS011;1068;52.460;13.528;2024-03-08T04:16:18;24.25;;;15.85;;
2123;SDS011;1068;52.460;13.528;2024-03-08T04:18:45;23.42;;;15.35;;
2123;SDS011;1068;52.460;13.528;2024-03-08T04:21:14;24.95;;;16.70;;
2123;SDS011;1068;52.460;13.528;2024-03-08T04:23:41;26.52;;;16.63;;
2123;SDS011;1068;52.460;13.528;2024-03-08T04:26:10;22.42;;;14.95;;
2123;SDS011;1068;52.460;13.528;2024-03-08T04:28:38;23.80;;;16.52;;
2123;SDS011;1068;52.460;13.528;2024-03-08T04:31:05;25.05;;;15.57;;
2123;SDS011;1068;52.460;13.528;2024-03-08T04:33:31;22.65;;;14.80;;
2123;SDS011;1068;52.460;13.528;2024-03-08T04:36:00;23.30;;;14.88;;
2123;SDS011;1068;52.460;13.528;2024-03-08T04:38:30;20.30;;;14.98;;
2123;SDS011;1068;52.460;13.528;2024-03-08T04:40:57;19.05;;;14.23;;
2123;SDS011;1068;52.460;13.528;2024-03-08T04:43:24;22.65;;;14.65;;
2123;SDS011;1068;52.460;13.528;2024-03-08T04:45:51;26.48;;;16.95;;
2123;SDS011;1068;52.460;13.528;2024-03-08T04:48:18;25.08;;;15.50;;
2123;SDS011;1068;52.460;13.528;2024-03-08T04:50:46;24.70;;;14.30;;
2123;SDS011;1068;52.460;13.528;2024-03-08T04:53:14;21.33;;;14.32;;
2123;SDS011;1068;52.460;13.528;2024-03-08T04:55:44;23.77;;;15.65;;
2123;SDS011;1068;52.460;13.528;2024-03-08T04:58:11;24.20;;;14.70;;
2123;SDS011;1068;52.460;13.528;2024-03-08T05:00:37;21.55;;;14.45;;
2123;SDS011;1068;52.460;13.528;2024-03-08T05:03:04;23.95;;;16.33;;
2123;SDS011;1068;52.460;13.528;2024-03-08T05:05:31;26.33;;;14.82;;
2123;SDS011;1068;52.460;13.528;2024-03-08T05:07:58;26.35;;;15.25;;
2123;SDS011;1068;52.460;13.528;2024-03-08T05:10:26;30.52;;;19.98;;
2123;SDS011;1068;52.460;13.528;2024-03-08T05:12:54;28.88;;;18.98;;
2123;SDS011;1068;52.460;13.528;2024-03-08T05:15:21;30.90;;;18.08;;
2123;SDS011;1068;52.460;13.528;2024-03-08T05:17:48;28.25;;;19.83;;
2123;SDS011;1068;52.460;13.528;2024-03-08T05:20:15;28.75;;;19.92;;
2123;SDS011;1068;52.460;13.528;2024-03-08T05:22:44;33.22;;;23.80;;
2123;SDS011;1068;52.460;13.528;2024-03-08T05:25:11;34.67;;;22.30;;
2123;SDS011;1068;52.460;13.528;2024-03-08T05:27:39;32.03;;;20.23;;
2123;SDS011;1068;52.460;13.528;2024-03-08T05:30:08;31.23;;;20.45;;
2123;SDS011;1068;52.460;13.528;2024-03-08T05:32:39;30.98;;;18.67;;
2123;SDS011;1068;52.460;13.528;2024-03-08T05:35:09;27.85;;;17.95;;
2123;SDS011;1068;52.460;13.528;2024-03-08T05:37:37;28.83;;;18.13;;
2123;SDS011;1068;52.460;13.528;2024-03-08T05:40:04;28.70;;;18.70;;
2123;SDS011;1068;52.460;13.528;2024-03-08T05:42:34;28.35;;;17.23;;
2123;SDS011;1068;52.460;13.528;2024-03-08T05:45:02;28.38;;;18.17;;
2123;SDS011;1068;52.460;13.528;2024-03-08T05:47:30;25.90;;;16.58;;
2123;SDS011;1068;52.460;13.528;2024-03-08T05:49:57;30.67;;;17.90;;
2123;SDS011;1068;52.460;13.528;2024-03-08T05:52:24;34.92;;;24.85;;
2123;SDS011;1068;52.460;13.528;2024-03-08T05:54:51;38.80;;;24.02;;
2123;SDS011;1068;52.460;13.528;2024-03-08T05:57:18;27.52;;;17.92;;
2123;SDS011;1068;52.460;13.528;2024-03-08T05:59:48;27.55;;;18.40;;
2123;SDS011;1068;52.460;13.528;2024-03-08T06:02:15;30.20;;;18.05;;
2123;SDS011;1068;52.460;13.528;2024-03-08T06:04:45;27.65;;;17.42;;
2123;SDS011;1068;52.460;13.528;2024-03-08T06:07:12;30.52;;;17.83;;
2123;SDS011;1068;52.460;13.528;2024-03-08T06:09:39;27.00;;;16.55;;
2123;SDS011;1068;52.460;13.528;2024-03-08T06:12:10;30.85;;;18.75;;
2123;SDS011;1068;52.460;13.528;2024-03-08T06:14:37;28.60;;;18.98;;
2123;SDS011;1068;52.460;13.528;2024-03-08T06:17:04;31.80;;;20.05;;
2123;SDS011;1068;52.460;13.528;2024-03-08T06:19:32;25.88;;;17.92;;
2123;SDS011;1068;52.460;13.528;2024-03-08T06:22:02;26.75;;;17.02;;
2123;SDS011;1068;52.460;13.528;2024-03-08T06:24:30;31.80;;;19.05;;
2123;SDS011;1068;52.460;13.528;2024-03-08T06:26:57;27.83;;;18.00;;
2123;SDS011;1068;52.460;13.528;2024-03-08T06:29:24;27.85;;;17.90;;
2123;SDS011;1068;52.460;13.528;2024-03-08T06:31:51;25.55;;;17.48;;
2123;SDS011;1068;52.460;13.528;2024-03-08T06:34:19;28.75;;;19.30;;
2123;SDS011;1068;52.460;13.528;2024-03-08T06:36:45;29.45;;;19.13;;
2123;SDS011;1068;52.460;13.528;2024-03-08T06:39:14;28.55;;;17.70;;
2123;SDS011;1068;52.460;13.528;2024-03-08T06:41:42;25.08;;;17.45;;
2123;SDS011;1068;52.460;13.528;2024-03-08T06:44:09;30.48;;;19.08;;
2123;SDS011;1068;52.460;13.528;2024-03-08T06:46:36;36.42;;;21.20;;
2123;SDS011;1068;52.460;13.528;2024-03-08T06:49:04;31.05;;;19.98;;
2123;SDS011;1068;52.460;13.528;2024-03-08T06:51:32;34.58;;;21.05;;
2123;SDS011;1068;52.460;13.528;2024-03-08T06:53:59;36.17;;;21.40;;
2123;SDS011;1068;52.460;13.528;2024-03-08T06:56:27;35.60;;;25.00;;
2123;SDS011;1068;52.460;13.528;2024-03-08T06:58:55;39.20;;;24.17;;
2123;SDS011;1068;52.460;13.528;2024-03-08T07:01:22;38.58;;;25.77;;
2123;SDS011;1068;52.460;13.528;2024-03-08T07:03:49;33.50;;;23.05;;
2123;SDS011;1068;52.460;13.528;2024-03-08T07:06:17;31.80;;;22.35;;
2123;SDS011;1068;52.460;13.528;2024-03-08T07:08:45;30.23;;;19.95;;
2123;SDS011;1068;52.460;13.528;2024-03-08T07:11:13;33.03;;;21.50;;
2123;SDS011;1068;52.460;13.528;2024-03-08T07:13:44;38.03;;;22.55;;
2123;SDS011;1068;52.460;13.528;2024-03-08T07:16:11;31.42;;;21.63;;
2123;SDS011;1068;52.460;13.528;2024-03-08T07:18:38;38.50;;;21.50;;
2123;SDS011;1068;52.460;13.528;2024-03-08T07:21:08;37.42;;;22.42;;
2123;SDS011;1068;52.460;13.528;2024-03-08T07:23:35;34.30;;;21.48;;
2123;SDS011;1068;52.460;13.528;2024-03-08T07:26:31;34.00;;;21.08;;
2123;SDS011;1068;52.460;13.528;2024-03-08T07:28:59;38.22;;;20.63;;
2123;SDS011;1068;52.460;13.528;2024-03-08T07:31:26;29.52;;;21.30;;
2123;SDS011;1068;52.460;13.528;2024-03-08T07:34:09;31.45;;;19.90;;
2123;SDS011;1068;52.460;13.528;2024-03-08T07:36:36;32.50;;;20.80;;
2123;SDS011;1068;52.460;13.528;2024-03-08T07:39:03;32.78;;;21.60;;
2123;SDS011;1068;52.460;13.528;2024-03-08T07:41:30;36.50;;;20.40;;
2123;SDS011;1068;52.460;13.528;2024-03-08T07:44:02;32.42;;;21.25;;
2123;SDS011;1068;52.460;13.528;2024-03-08T07:46:29;35.40;;;20.92;;
2123;SDS011;1068;52.460;13.528;2024-03-08T07:48:56;31.20;;;20.20;;
2123;SDS011;1068;52.460;13.528;2024-03-08T07:51:23;30.13;;;20.75;;
2123;SDS011;1068;52.460;13.528;2024-03-08T07:53:50;34.20;;;20.67;;
2123;SDS011;1068;52.460;13.528;2024-03-08T07:56:17;32.28;;;21.00;;
2123;SDS011;1068;52.460;13.528;2024-03-08T07:58:46;30.67;;;19.83;;
2123;SDS011;1068;52.460;13.528;2024-03-08T08:01:17;30.25;;;20.70;;
2123;SDS011;1068;52.460;13.528;2024-03-08T08:03:44;29.42;;;18.98;;
2123;SDS011;1068;52.460;13.528;2024-03-08T08:06:11;34.42;;;20.30;;
2123;SDS011;1068;52.460;13.528;2024-03-08T08:08:40;34.50;;;20.83;;
2123;SDS011;1068;52.460;13.528;2024-03-08T08:11:07;29.08;;;19.65;;
2123;SDS011;1068;52.460;13.528;2024-03-08T08:13:36;33.78;;;21.65;;
2123;SDS011;1068;52.460;13.528;2024-03-08T08:16:04;29.38;;;20.05;;
2123;SDS011;1068;52.460;13.528;2024-03-08T08:18:33;35.13;;;22.10;;
2123;SDS011;1068;52.460;13.528;2024-03-08T08:21:01;37.90;;;20.45;;
2123;SDS011;1068;52.460;13.528;2024-03-08T08:23:28;30.67;;;19.65;;
2123;SDS011;1068;52.460;13.528;2024-03-08T08:25:55;27.75;;;18.85;;
2123;SDS011;1068;52.460;13.528;2024-03-08T08:28:22;28.90;;;18.77;;
2123;SDS011;1068;52.460;13.528;2024-03-08T08:30:49;28.55;;;18.55;;
2123;SDS011;1068;52.460;13.528;2024-03-08T08:33:17;30.42;;;18.75;;
2123;SDS011;1068;52.460;13.528;2024-03-08T08:35:45;31.88;;;19.38;;
2123;SDS011;1068;52.460;13.528;2024-03-08T08:38:13;31.65;;;17.88;;
2123;SDS011;1068;52.460;13.528;2024-03-08T08:40:40;25.50;;;18.38;;
2123;SDS011;1068;52.460;13.528;2024-03-08T08:43:07;30.05;;;18.90;;
2123;SDS011;1068;52.460;13.528;2024-03-08T08:45:34;29.73;;;18.90;;
2123;SDS011;1068;52.460;13.528;2024-03-08T08:48:01;35.20;;;20.88;;
2123;SDS011;1068;52.460;13.528;2024-03-08T08:50:30;29.52;;;19.10;;
2123;SDS011;1068;52.460;13.528;2024-03-08T08:52:58;27.38;;;18.65;;
2123;SDS011;1068;52.460;13.528;2024-03-08T08:55:25;32.60;;;20.92;;
2123;SDS011;1068;52.460;13.528;2024-03-08T08:57:52;26.35;;;18.15;;
2123;SDS011;1068;52.460;13.528;2024-03-08T09:00:21;24.40;;;18.27;;
2123;SDS011;1068;52.460;13.528;2024-03-08T09:02:52;25.70;;;18.95;;
2123;SDS011;1068;52.460;13.528;2024-03-08T09:05:20;30.58;;;18.75;;
2123;SDS011;1068;52.460;13.528;2024-03-08T09:07:49;25.20;;;18.35;;
2123;SDS011;1068;52.460;13.528;2024-03-08T09:10:17;24.25;;;17.40;;
2123;SDS011;1068;52.460;13.528;2024-03-08T09:12:44;29.40;;;18.55;;
2123;SDS011;1068;52.460;13.528;2024-03-08T09:15:12;23.23;;;16.83;;
2123;SDS011;1068;52.460;13.528;2024-03-08T09:17:39;29.20;;;17.83;;
2123;SDS011;1068;52.460;13.528;2024-03-08T09:20:06;27.80;;;18.15;;
2123;SDS011;1068;52.460;13.528;2024-03-08T09:22:33;23.38;;;16.90;;
2123;SDS011;1068;52.460;13.528;2024-03-08T09:25:00;28.05;;;17.33;;
2123;SDS011;1068;52.460;13.528;2024-03-08T09:27:31;23.88;;;16.67;;
2123;SDS011;1068;52.460;13.528;2024-03-08T09:29:58;21.98;;;15.95;;
2123;SDS011;1068;52.460;13.528;2024-03-08T09:32:26;22.60;;;15.32;;
2123;SDS011;1068;52.460;13.528;2024-03-08T09:34:53;24.08;;;15.68;;
2123;SDS011;1068;52.460;13.528;2024-03-08T09:37:21;23.15;;;15.30;;
2123;SDS011;1068;52.460;13.528;2024-03-08T09:39:48;21.10;;;15.10;;
2123;SDS011;1068;52.460;13.528;2024-03-08T09:42:15;22.88;;;14.48;;
2123;SDS011;1068;52.460;13.528;2024-03-08T09:44:47;28.73;;;16.10;;
2123;SDS011;1068;52.460;13.528;2024-03-08T09:47:14;24.20;;;15.10;;
2123;SDS011;1068;52.460;13.528;2024-03-08T09:49:41;18.73;;;14.30;;
2123;SDS011;1068;52.460;13.528;2024-03-08T09:52:09;21.48;;;13.18;;
2123;SDS011;1068;52.460;13.528;2024-03-08T09:54:37;19.75;;;13.18;;
2123;SDS011;1068;52.460;13.528;2024-03-08T09:57:04;18.10;;;12.10;;
2123;SDS011;1068;52.460;13.528;2024-03-08T09:59:33;21.92;;;12.57;;
2123;SDS011;1068;52.460;13.528;2024-03-08T10:02:12;18.83;;;12.35;;
2123;SDS011;1068;52.460;13.528;2024-03-08T10:04:40;19.38;;;13.32;;
2123;SDS011;1068;52.460;13.528;2024-03-08T10:07:08;23.13;;;13.85;;
2123;SDS011;1068;52.460;13.528;2024-03-08T10:09:35;21.67;;;13.80;;
2123;SDS011;1068;52.460;13.528;2024-03-08T10:12:02;19.77;;;14.30;;
2123;SDS011;1068;52.460;13.528;2024-03-08T10:14:30;21.95;;;15.00;;
2123;SDS011;1068;52.460;13.528;2024-03-08T10:16:57;22.40;;;14.67;;
2123;SDS011;1068;52.460;13.528;2024-03-08T10:19:26;21.37;;;14.50;;
2123;SDS011;1068;52.460;13.528;2024-03-08T10:21:55;21.40;;;13.60;;
2123;SDS011;1068;52.460;13.528;2024-03-08T10:24:23;23.58;;;14.60;;
2123;SDS011;1068;52.460;13.528;2024-03-08T10:26:53;22.47;;;14.80;;
2123;SDS011;1068;52.460;13.528;2024-03-08T10:29:20;21.53;;;16.13;;
2123;SDS011;1068;52.460;13.528;2024-03-08T10:31:47;23.77;;;14.03;;
2123;SDS011;1068;52.460;13.528;2024-03-08T10:34:15;19.33;;;14.47;;
2123;SDS011;1068;52.460;13.528;2024-03-08T10:36:43;18.30;;;14.00;;
2123;SDS011;1068;52.460;13.528;2024-03-08T10:39:12;22.27;;;14.53;;
2123;SDS011;1068;52.460;13.528;2024-03-08T10:41:41;21.53;;;15.43;;
2123;SDS011;1068;52.460;13.528;2024-03-08T10:44:14;22.13;;;14.63;;
2123;SDS011;1068;52.460;13.528;2024-03-08T10:46:47;18.03;;;13.00;;
2123;SDS011;1068;52.460;13.528;2024-03-08T10:49:19;20.80;;;13.20;;
2123;SDS011;1068;52.460;13.528;2024-03-08T10:51:52;25.13;;;13.80;;
2123;SDS011;1068;52.460;13.528;2024-03-08T10:54:19;20.73;;;13.00;;
2123;SDS011;1068;52.460;13.528;2024-03-08T10:56:47;18.47;;;12.43;;
2123;SDS011;1068;52.460;13.528;2024-03-08T10:59:15;19.03;;;13.50;;
2123;SDS011;1068;52.460;13.528;2024-03-08T11:01:42;22.47;;;14.80;;
2123;SDS011;1068;52.460;13.528;2024-03-08T11:04:09;19.17;;;14.13;;
2123;SDS011;1068;52.460;13.528;2024-03-08T11:06:41;19.67;;;14.20;;
2123;SDS011;1068;52.460;13.528;2024-03-08T11:09:12;18.13;;;13.07;;
2123;SDS011;1068;52.460;13.528;2024-03-08T11:14:42;16.97;;;12.00;;
2123;SDS011;1068;52.460;13.528;2024-03-08T11:17:10;16.53;;;11.20;;
2123;SDS011;1068;52.460;13.528;2024-03-08T11:19:37;19.80;;;12.00;;
2123;SDS011;1068;52.460;13.528;2024-03-08T11:22:05;19.40;;;13.57;;
2123;SDS011;1068;52.460;13.528;2024-03-08T11:24:39;14.77;;;11.93;;
2123;SDS011;1068;52.460;13.528;2024-03-08T11:27:06;15.80;;;11.73;;
2123;SDS011;1068;52.460;13.528;2024-03-08T11:29:37;16.67;;;12.20;;
2123;SDS011;1068;52.460;13.528;2024-03-08T11:32:07;14.70;;;11.33;;
2123;SDS011;1068;52.460;13.528;2024-03-08T11:34:34;17.17;;;11.90;;
2123;SDS011;1068;52.460;13.528;2024-03-08T11:37:03;14.43;;;10.90;;
2123;SDS011;1068;52.460;13.528;2024-03-08T11:39:30;14.50;;;10.70;;
2123;SDS011;1068;52.460;13.528;2024-03-08T11:41:58;13.80;;;9.50;;
2123;SDS011;1068;52.460;13.528;2024-03-08T11:44:26;12.07;;;10.30;;
2123;SDS011;1068;52.460;13.528;2024-03-08T11:46:53;14.47;;;11.17;;
2123;SDS011;1068;52.460;13.528;2024-03-08T11:49:20;13.50;;;10.73;;
2123;SDS011;1068;52.460;13.528;2024-03-08T11:51:50;13.70;;;10.50;;
2123;SDS011;1068;52.460;13.528;2024-03-08T11:54:18;17.90;;;10.50;;
2123;SDS011;1068;52.460;13.528;2024-03-08T11:56:45;13.57;;;10.17;;
2123;SDS011;1068;52.460;13.528;2024-03-08T11:59:14;12.87;;;10.23;;
2123;SDS011;1068;52.460;13.528;2024-03-08T12:01:42;12.80;;;9.63;;
2123;SDS011;1068;52.460;13.528;2024-03-08T12:04:11;14.30;;;9.80;;
2123;SDS011;1068;52.460;13.528;2024-03-08T12:06:39;15.13;;;10.03;;
2123;SDS011;1068;52.460;13.528;2024-03-08T12:09:09;15.20;;;8.80;;
2123;SDS011;1068;52.460;13.528;2024-03-08T12:11:38;13.93;;;9.57;;
2123;SDS011;1068;52.460;13.528;2024-03-08T12:14:06;14.17;;;9.70;;
2123;SDS011;1068;52.460;13.528;2024-03-08T12:16:34;13.80;;;9.47;;
2123;SDS011;1068;52.460;13.528;2024-03-08T12:19:02;15.20;;;8.80;;
2123;SDS011;1068;52.460;13.528;2024-03-08T12:21:31;18.37;;;12.67;;
2123;SDS011;1068;52.460;13.528;2024-03-08T12:24:03;13.93;;;11.13;;
2123;SDS011;1068;52.460;13.528;2024-03-08T12:26:30;14.77;;;10.33;;
2123;SDS011;1068;52.460;13.528;2024-03-08T12:31:43;16.03;;;12.90;;
2123;SDS011;1068;52.460;13.528;2024-03-08T12:34:10;18.87;;;13.73;;
2123;SDS011;1068;52.460;13.528;2024-03-08T12:36:38;16.20;;;12.70;;
2123;SDS011;1068;52.460;13.528;2024-03-08T12:39:12;18.33;;;12.77;;
2123;SDS011;1068;52.460;13.528;2024-03-08T12:41:40;19.27;;;13.10;;
2123;SDS011;1068;52.460;13.528;2024-03-08T12:44:08;19.43;;;12.50;;
2123;SDS011;1068;52.460;13.528;2024-03-08T12:46:36;17.80;;;13.10;;
2123;SDS011;1068;52.460;13.528;2024-03-08T12:49:06;14.60;;;10.73;;
2123;SDS011;1068;52.460;13.528;2024-03-08T12:51:33;13.93;;;10.17;;
2123;SDS011;1068;52.460;13.528;2024-03-08T12:54:00;15.03;;;11.03;;
2123;SDS011;1068;52.460;13.528;2024-03-08T12:56:31;17.30;;;10.97;;
2123;SDS011;1068;52.460;13.528;2024-03-08T12:58:59;17.10;;;12.23;;
2123;SDS011;1068;52.460;13.528;2024-03-08T13:01:26;15.53;;;11.93;;
2123;SDS011;1068;52.460;13.528;2024-03-08T13:03:53;14.77;;;12.20;;
2123;SDS011;1068;52.460;13.528;2024-03-08T13:06:21;15.60;;;11.33;;
2123;SDS011;1068;52.460;13.528;2024-03-08T13:08:49;17.93;;;12.27;;
2123;SDS011;1068;52.460;13.528;2024-03-08T13:11:17;16.23;;;11.77;;
2123;SDS011;1068;52.460;13.528;2024-03-08T13:13:44;15.63;;;12.40;;
2123;SDS011;1068;52.460;13.528;2024-03-08T13:16:11;15.57;;;10.47;;
2123;SDS011;1068;52.460;13.528;2024-03-08T13:18:40;14.20;;;12.53;;
2123;SDS011;1068;52.460;13.528;2024-03-08T13:21:08;16.67;;;11.37;;
2123;SDS011;1068;52.460;13.528;2024-03-08T13:23:37;15.00;;;11.83;;
2123;SDS011;1068;52.460;13.528;2024-03-08T13:26:05;13.73;;;11.33;;
2123;SDS011;1068;52.460;13.528;2024-03-08T13:28:32;17.20;;;11.27;;
2123;SDS011;1068;52.460;13.528;2024-03-08T13:31:02;13.20;;;10.60;;
2123;SDS011;1068;52.460;13.528;2024-03-08T13:33:31;16.50;;;12.50;;
2123;SDS011;1068;52.460;13.528;2024-03-08T13:36:00;17.90;;;10.30;;
2123;SDS011;1068;52.460;13.528;2024-03-08T13:38:28;15.17;;;10.43;;
2123;SDS011;1068;52.460;13.528;2024-03-08T13:40:58;12.30;;;10.27;;
2123;SDS011;1068;52.460;13.528;2024-03-08T13:43:25;12.60;;;9.07;;
2123;SDS011;1068;52.460;13.528;2024-03-08T13:45:54;13.90;;;10.60;;
2123;SDS011;1068;52.460;13.528;2024-03-08T13:48:20;17.43;;;11.57;;
2123;SDS011;1068;52.460;13.528;2024-03-08T13:50:48;13.80;;;10.63;;
2123;SDS011;1068;52.460;13.528;2024-03-08T13:53:16;15.67;;;10.80;;
2123;SDS011;1068;52.460;13.528;2024-03-08T13:55:43;17.00;;;10.63;;
2123;SDS011;1068;52.460;13.528;2024-03-08T13:58:12;22.00;;;12.07;;
2123;SDS011;1068;52.460;13.528;2024-03-08T14:00:39;13.60;;;10.87;;
2123;SDS011;1068;52.460;13.528;2024-03-08T14:03:08;13.33;;;10.57;;
2123;SDS011;1068;52.460;13.528;2024-03-08T14:05:38;12.23;;;9.67;;
2123;SDS011;1068;52.460;13.528;2024-03-08T14:08:05;12.13;;;9.77;;
2123;SDS011;1068;52.460;13.528;2024-03-08T14:10:32;17.37;;;11.23;;
2123;SDS011;1068;52.460;13.528;2024-03-08T14:12:59;13.27;;;10.50;;
2123;SDS011;1068;52.460;13.528;2024-03-08T14:15:29;14.03;;;10.00;;
2123;SDS011;1068;52.460;13.528;2024-03-08T14:17:56;13.60;;;10.17;;
2123;SDS011;1068;52.460;13.528;2024-03-08T14:20:23;16.13;;;11.97;;
2123;SDS011;1068;52.460;13.528;2024-03-08T14:22:50;11.27;;;9.03;;
2123;SDS011;1068;52.460;13.528;2024-03-08T14:25:17;14.20;;;9.80;;
2123;SDS011;1068;52.460;13.528;2024-03-08T14:27:44;15.60;;;10.20;;
2123;SDS011;1068;52.460;13.528;2024-03-08T14:30:12;11.87;;;9.70;;
2123;SDS011;1068;52.460;13.528;2024-03-08T14:32:44;14.70;;;9.97;;
2123;SDS011;1068;52.460;13.528;2024-03-08T14:35:12;12.97;;;10.50;;
2123;SDS011;1068;52.460;13.528;2024-03-08T14:37:39;13.10;;;10.40;;
2123;SDS011;1068;52.460;13.528;2024-03-08T14:40:08;11.93;;;10.30;;
2123;SDS011;1068;52.460;13.528;2024-03-08T14:42:35;14.60;;;10.10;;
2123;SDS011;1068;52.460;13.528;2024-03-08T14:45:02;12.03;;;9.40;;